Time;durP1;ratioP1;P1;durP2;ratioP2;P2;SDS_P1;SDS_P2;PMS_P1;PMS_P2;Temp;Humidity;BMP_temperature;BMP_pressure;BME280_temperature;BME280_humidity;BME280_pressure;Samples;Min_cycle;Max_cycle;Signal;HPM_P1;HPM_P2
2022/08/22 00:01:50;;;;;;;9.20;2.05;;;19.30;99.90;;;;;;5062294;28;20130;-31
2022/08/22 00:04:27;;;;;;;6.00;1.77;;;19.20;99.90;;;;;;5051490;28;20037;-31
2022/08/22 00:06:59;;;;;;;7.17;1.60;;;19.10;99.90;;;;;;5054203;28;20051;-29
2022/08/22 00:09:31;;;;;;;3.55;1.77;;;19.10;99.90;;;;;;5062011;28;20036;-33
2022/08/22 00:12:24;;;;;;;4.43;1.70;;;19.10;99.90;;;;;;5074011;28;20021;-37
2022/08/22 00:15:05;;;;;;;7.28;1.70;;;19.10;99.90;;;;;;5063563;28;20503;-30
2022/08/22 00:17:48;;;;;;;3.78;2.00;;;19.10;99.90;;;;;;5052405;28;20492;-32
2022/08/22 00:20:30;;;;;;;2.40;1.75;;;19.10;99.90;;;;;;5064576;28;20032;-32
2022/08/22 00:23:31;;;;;;;6.28;2.10;;;19.10;99.90;;;;;;5059821;28;20170;-37
2022/08/22 00:26:05;;;;;;;6.38;1.40;;;19.00;99.90;;;;;;5037010;28;20049;-35
2022/08/22 00:28:30;;;;;;;7.47;1.98;;;19.10;99.90;;;;;;5063957;28;20458;-32
2022/08/22 00:31:21;;;;;;;8.88;1.77;;;19.00;99.90;;;;;;5065872;28;20032;-29
2022/08/22 00:33:49;;;;;;;2.97;2.03;;;19.00;99.90;;;;;;5058275;28;20557;-32
2022/08/22 00:36:32;;;;;;;11.15;2.17;;;19.00;99.90;;;;;;5058716;28;20056;-34
2022/08/22 00:39:14;;;;;;;7.55;1.92;;;18.90;99.90;;;;;;5063797;28;21403;-31
2022/08/22 00:41:48;;;;;;;5.18;1.90;;;18.90;99.90;;;;;;5063775;28;20089;-38
2022/08/22 00:44:41;;;;;;;9.35;1.67;;;18.90;99.90;;;;;;5061076;28;20657;-29
2022/08/22 00:47:46;;;;;;;3.45;1.70;;;18.90;99.90;;;;;;5060774;28;20033;-37
2022/08/22 00:50:16;;;;;;;5.15;1.90;;;18.80;99.90;;;;;;5044063;28;20521;-31
2022/08/22 00:53:04;;;;;;;2.65;1.40;;;18.80;99.90;;;;;;5045750;28;20819;-32
2022/08/22 00:56:07;;;;;;;6.38;1.73;;;18.70;99.90;;;;;;5050461;28;20041;-30
2022/08/22 00:58:51;;;;;;;7.00;1.42;;;18.70;99.90;;;;;;5060981;28;20031;-30
2022/08/22 01:01:25;;;;;;;4.60;1.38;;;18.70;99.90;;;;;;5066243;28;20028;-31
2022/08/22 01:04:08;;;;;;;7.03;1.80;;;18.80;99.90;;;;;;5062406;28;20078;-30
2022/08/22 01:06:50;;;;;;;3.03;1.55;;;18.70;99.90;;;;;;5064479;28;20074;-31
2022/08/22 01:09:35;;;;;;;4.30;1.50;;;18.70;99.90;;;;;;5058744;28;20473;-29
2022/08/22 01:12:31;;;;;;;7.88;1.60;;;18.70;99.90;;;;;;5066126;28;20028;-30
2022/08/22 01:15:04;;;;;;;2.80;1.60;;;18.60;99.90;;;;;;5059723;28;20028;-49
2022/08/22 01:18:15;;;;;;;9.65;2.33;;;18.60;99.90;;;;;;5063561;28;20095;-33
2022/08/22 01:21:00;;;;;;;5.32;1.33;;;18.60;99.90;;;;;;5060954;28;20028;-30
2022/08/22 01:23:45;;;;;;;6.07;1.80;;;18.50;99.90;;;;;;5063389;28;20032;-32
2022/08/22 01:26:29;;;;;;;2.83;2.03;;;18.50;99.90;;;;;;5064945;28;20029;-33
2022/08/22 01:29:03;;;;;;;10.95;2.33;;;18.60;99.90;;;;;;5065205;28;20099;-38
2022/08/22 01:31:28;;;;;;;6.55;1.80;;;18.50;99.90;;;;;;5064953;28;20697;-34
2022/08/22 01:34:28;;;;;;;4.70;1.70;;;18.50;99.90;;;;;;5072608;28;20030;-47
2022/08/22 01:37:21;;;;;;;17.38;2.65;;;18.50;99.90;;;;;;5070632;28;20351;-36
2022/08/22 01:39:58;;;;;;;7.32;1.98;;;18.50;99.90;;;;;;5062330;28;20039;-37
2022/08/22 01:42:42;;;;;;;;;;;18.40;99.90;;;;;;5063560;28;20028;-39
2022/08/22 01:45:35;;;;;;;3.83;1.40;;;18.50;99.90;;;;;;5065795;28;19909;-39
2022/08/22 01:48:26;;;;;;;8.93;1.90;;;18.50;99.90;;;;;;5061536;28;20530;-37
2022/08/22 01:50:56;;;;;;;6.82;1.75;;;18.50;99.90;;;;;;5067835;28;20095;-36
2022/08/22 01:54:03;;;;;;;3.33;1.70;;;18.50;99.90;;;;;;5061466;28;20059;-37
2022/08/22 01:56:37;;;;;;;6.32;3.33;;;18.50;99.90;;;;;;5065867;28;20568;-38
2022/08/22 01:59:09;;;;;;;8.35;1.80;;;18.50;99.90;;;;;;5062934;28;20028;-48
2022/08/22 02:01:48;;;;;;;10.93;2.35;;;18.40;99.90;;;;;;5069720;28;20020;-53
2022/08/22 02:04:35;;;;;;;6.20;1.67;;;18.40;99.90;;;;;;5065287;28;20032;-35
2022/08/22 02:07:29;;;;;;;3.03;1.92;;;18.30;99.90;;;;;;5062819;28;20384;-32
2022/08/22 02:10:29;;;;;;;6.97;2.22;;;18.30;99.90;;;;;;5060680;28;20119;-30
2022/08/22 02:13:22;;;;;;;7.20;2.33;;;18.30;99.90;;;;;;5058750;28;20507;-30
2022/08/22 02:16:00;;;;;;;6.43;1.77;;;18.20;99.90;;;;;;5073168;28;20518;-29
2022/08/22 02:18:44;;;;;;;3.85;1.98;;;18.20;99.90;;;;;;5059193;28;20029;-33
2022/08/22 02:21:39;;;;;;;8.00;1.92;;;18.20;99.90;;;;;;5062127;28;20044;-30
2022/08/22 02:24:20;;;;;;;6.22;1.92;;;18.20;99.90;;;;;;5063261;28;20040;-35
2022/08/22 02:27:09;;;;;;;5.15;2.08;;;18.10;99.90;;;;;;5056220;28;20032;-30
2022/08/22 02:29:57;;;;;;;6.72;1.67;;;18.10;99.90;;;;;;5064517;28;20032;-36
2022/08/22 02:32:40;;;;;;;5.32;1.60;;;18.20;99.90;;;;;;5062802;28;20024;-36
2022/08/22 02:35:13;;;;;;;7.18;2.42;;;18.20;99.90;;;;;;5061158;28;20025;-48
2022/08/22 02:38:18;;;;;;;7.05;1.95;;;18.20;99.90;;;;;;5067253;28;20032;-32
2022/08/22 02:41:17;;;;;;;3.03;1.50;;;18.20;99.90;;;;;;5068215;28;20032;-39
2022/08/22 02:44:15;;;;;;;9.25;2.42;;;18.10;99.90;;;;;;5060252;28;20020;-37
2022/08/22 02:47:00;;;;;;;8.18;1.67;;;18.20;99.90;;;;;;5068721;28;20056;-37
2022/08/22 02:50:02;;;;;;;4.93;1.92;;;18.20;99.90;;;;;;5056844;28;20039;-36
2022/08/22 02:52:54;;;;;;;9.30;1.80;;;18.10;99.90;;;;;;5060412;28;20041;-37
2022/08/22 02:55:53;;;;;;;8.40;1.92;;;18.10;99.90;;;;;;5068378;28;20690;-39
2022/08/22 02:58:33;;;;;;;4.82;2.42;;;18.10;99.90;;;;;;5070742;28;20036;-31
2022/08/22 03:01:02;;;;;;;5.55;2.33;;;18.10;99.90;;;;;;5074227;28;20025;-32
2022/08/22 03:03:34;;;;;;;3.65;1.90;;;18.10;99.90;;;;;;5061424;28;20016;-34
2022/08/22 03:06:26;;;;;;;3.38;1.50;;;18.10;99.90;;;;;;5065417;28;20025;-33
2022/08/22 03:09:14;;;;;;;4.72;2.00;;;18.10;99.90;;;;;;5056406;28;20503;-35
2022/08/22 03:11:46;;;;;;;4.05;1.88;;;18.10;99.90;;;;;;5064020;28;20036;-31
2022/08/22 03:14:21;;;;;;;4.05;1.60;;;18.10;99.90;;;;;;5054976;28;20028;-29
2022/08/22 03:17:17;;;;;;;7.18;1.75;;;18.10;99.90;;;;;;5070058;28;20040;-32
2022/08/22 03:19:49;;;;;;;5.80;2.03;;;18.10;99.90;;;;;;5059648;28;20401;-32
2022/08/22 03:22:42;;;;;;;6.00;1.77;;;18.10;99.90;;;;;;5065676;28;20403;-31
2022/08/22 03:25:17;;;;;;;6.45;2.58;;;18.10;99.90;;;;;;5056778;28;20045;-30
2022/08/22 03:28:00;;;;;;;7.22;2.08;;;18.10;99.90;;;;;;5055871;28;20358;-32
2022/08/22 03:30:57;;;;;;;7.55;1.90;;;18.10;99.90;;;;;;5062526;28;20111;-35
2022/08/22 03:33:28;;;;;;;4.50;1.90;;;18.10;99.90;;;;;;5066175;28;20115;-31
2022/08/22 03:36:05;;;;;;;6.32;1.98;;;18.10;99.90;;;;;;5063944;28;20510;-33
2022/08/22 03:38:30;;;;;;;13.43;2.10;;;18.00;99.90;;;;;;5052219;28;20060;-31
2022/08/22 03:41:11;;;;;;;9.90;2.90;;;18.10;99.90;;;;;;5060729;28;20515;-31
2022/08/22 03:43:48;;;;;;;5.05;1.75;;;18.00;99.90;;;;;;5057487;28;20032;-35
2022/08/22 03:46:33;;;;;;;10.27;2.22;;;18.00;99.90;;;;;;5057876;28;20029;-36
2022/08/22 03:49:41;;;;;;;4.65;2.00;;;18.00;99.90;;;;;;5058088;28;20475;-33
2022/08/22 03:55:40;;;;;;;5.88;2.30;;;18.00;99.90;;;;;;5069115;28;20515;-36
2022/08/22 03:58:24;;;;;;;5.40;2.25;;;18.00;99.90;;;;;;5054768;28;20029;-31
2022/08/22 04:01:18;;;;;;;5.05;1.95;;;18.00;99.90;;;;;;5054669;28;20055;-32
2022/08/22 04:03:58;;;;;;;8.00;2.22;;;18.00;99.90;;;;;;5057162;28;20027;-34
2022/08/22 04:07:01;;;;;;;5.07;1.83;;;18.00;99.90;;;;;;5067709;28;20028;-32
2022/08/22 04:09:36;;;;;;;6.15;2.10;;;18.00;99.90;;;;;;5061740;28;20028;-34
2022/08/22 04:12:46;;;;;;;8.13;2.00;;;17.90;99.90;;;;;;5058659;28;20531;-33
2022/08/22 04:15:42;;;;;;;15.45;2.35;;;17.90;99.90;;;;;;5052450;28;20598;-33
2022/08/22 04:18:48;;;;;;;4.63;1.75;;;17.90;99.90;;;;;;5052117;28;20028;-30
2022/08/22 04:21:26;;;;;;;6.28;1.75;;;17.90;99.90;;;;;;5049167;28;20036;-30
2022/08/22 04:24:15;;;;;;;8.93;2.35;;;17.90;99.90;;;;;;5053819;28;20033;-35
2022/08/22 04:26:52;;;;;;;6.85;2.30;;;17.90;99.90;;;;;;5053245;28;20064;-30
2022/08/22 04:29:29;;;;;;;5.78;1.90;;;17.90;99.90;;;;;;5053112;28;20477;-33
2022/08/22 04:32:18;;;;;;;5.82;1.77;;;17.90;99.90;;;;;;5066423;28;20536;-32
2022/08/22 04:34:51;;;;;;;6.18;2.30;;;17.90;99.90;;;;;;5066479;28;20492;-30
2022/08/22 04:37:29;;;;;;;12.90;2.35;;;18.00;99.90;;;;;;5082708;28;20496;-32
2022/08/22 04:40:04;;;;;;;5.15;2.40;;;17.90;99.90;;;;;;5058947;28;20461;-33
2022/08/22 04:42:39;;;;;;;3.45;2.22;;;17.90;99.90;;;;;;5069792;28;20086;-32
2022/08/22 04:45:15;;;;;;;3.55;2.10;;;17.90;99.90;;;;;;5067420;28;20338;-31
2022/08/22 04:47:59;;;;;;;5.77;1.67;;;17.90;99.90;;;;;;5058674;28;20020;-38
2022/08/22 04:50:30;;;;;;;11.43;2.30;;;17.90;99.90;;;;;;5063681;28;20028;-36
2022/08/22 04:53:30;;;;;;;4.43;2.45;;;17.90;99.90;;;;;;5064093;28;20082;-37
2022/08/22 04:56:08;;;;;;;7.13;2.50;;;17.90;99.90;;;;;;5062238;28;20071;-36
2022/08/22 04:58:40;;;;;;;7.70;2.10;;;18.00;99.90;;;;;;5069373;28;20028;-37
2022/08/22 05:01:05;;;;;;;7.50;1.80;;;17.90;99.90;;;;;;5064144;28;20024;-37
2022/08/22 05:03:36;;;;;;;9.70;2.22;;;18.00;99.90;;;;;;5077841;28;20467;-33
2022/08/22 05:06:04;;;;;;;4.70;1.92;;;18.00;99.90;;;;;;5067847;28;20472;-32
2022/08/22 05:08:34;;;;;;;5.18;1.67;;;18.00;99.90;;;;;;5066149;28;20543;-35
2022/08/22 05:11:02;;;;;;;3.97;2.00;;;18.00;99.90;;;;;;5056430;28;20108;-31
2022/08/22 05:13:38;;;;;;;4.90;2.28;;;18.00;99.90;;;;;;5067871;28;20032;-35
2022/08/22 05:16:09;;;;;;;7.85;2.30;;;18.00;99.90;;;;;;5065424;28;20020;-34
2022/08/22 05:18:42;;;;;;;5.15;2.45;;;18.00;99.90;;;;;;5057204;28;20028;-32
2022/08/22 05:21:10;;;;;;;4.75;2.03;;;18.00;99.90;;;;;;5066380;28;20021;-31
2022/08/22 05:23:56;;;;;;;4.90;1.98;;;18.10;99.90;;;;;;5059449;28;20033;-31
2022/08/22 05:26:23;;;;;;;6.28;2.33;;;18.10;99.90;;;;;;5068628;28;20036;-29
2022/08/22 05:28:55;;;;;;;5.20;2.27;;;18.10;99.90;;;;;;5066862;28;20027;-35
2022/08/22 05:31:35;;;;;;;3.58;1.98;;;18.10;99.90;;;;;;5067447;28;20636;-34
2022/08/22 05:34:10;;;;;;;8.60;2.53;;;18.20;99.90;;;;;;5065795;28;20396;-33
2022/08/22 05:36:42;;;;;;;6.35;1.83;;;18.20;99.90;;;;;;5058109;28;20147;-29
2022/08/22 05:39:18;;;;;;;4.82;2.40;;;18.20;99.90;;;;;;5061215;28;20021;-32
2022/08/22 05:41:44;;;;;;;12.27;2.70;;;18.30;99.90;;;;;;5069111;28;20475;-31
2022/08/22 05:44:24;;;;;;;10.65;2.60;;;18.30;99.90;;;;;;5067728;28;20452;-54
2022/08/22 05:47:04;;;;;;;7.30;2.22;;;18.30;99.90;;;;;;5062559;28;20032;-30
2022/08/22 05:49:38;;;;;;;7.45;2.13;;;18.40;99.90;;;;;;5059897;28;20510;-36
2022/08/22 05:52:38;;;;;;;5.72;2.15;;;18.30;99.90;;;;;;5065599;28;20468;-34
2022/08/22 05:55:37;;;;;;;4.40;1.90;;;18.40;99.90;;;;;;5064069;28;20048;-37
2022/08/22 05:58:30;;;;;;;13.40;2.30;;;18.40;99.90;;;;;;5069362;28;20412;-36
2022/08/22 06:01:23;;;;;;;11.23;2.58;;;18.40;99.90;;;;;;5069011;28;20024;-36
2022/08/22 06:04:12;;;;;;;3.33;2.17;;;18.40;99.90;;;;;;5068633;28;20037;-37
2022/08/22 06:06:53;;;;;;;9.48;2.38;;;18.30;99.90;;;;;;5074771;28;20036;-35
2022/08/22 06:09:23;;;;;;;8.88;2.55;;;18.30;99.90;;;;;;5055519;28;20480;-37
2022/08/22 06:12:04;;;;;;;4.13;1.83;;;18.40;99.90;;;;;;5061196;28;20458;-37
2022/08/22 06:14:39;;;;;;;4.78;1.77;;;18.40;99.90;;;;;;5061755;28;20052;-37
2022/08/22 06:17:17;;;;;;;9.20;2.63;;;18.50;99.90;;;;;;5068035;28;20384;-37
2022/08/22 06:19:49;;;;;;;3.85;2.30;;;18.60;99.90;;;;;;5064900;28;20017;-37
2022/08/22 06:22:28;;;;;;;8.82;2.83;;;18.60;99.90;;;;;;5062949;28;20032;-37
2022/08/22 06:25:00;;;;;;;13.75;3.17;;;18.70;99.90;;;;;;5066320;28;20029;-37
2022/08/22 06:27:27;;;;;;;7.88;2.83;;;18.70;99.90;;;;;;5067208;28;20033;-36
2022/08/22 06:30:00;;;;;;;8.63;2.25;;;18.70;99.90;;;;;;5062037;28;20596;-37
2022/08/22 06:32:33;;;;;;;6.53;3.08;;;18.70;99.90;;;;;;5061728;28;20544;-36
2022/08/22 06:35:17;;;;;;;5.80;2.30;;;18.70;99.90;;;;;;5063348;28;20017;-38
2022/08/22 06:37:44;;;;;;;7.47;2.55;;;18.70;99.90;;;;;;5069126;28;20040;-37
2022/08/22 06:40:11;;;;;;;;;;;18.80;99.90;;;;;;5056662;28;20029;-38
2022/08/22 06:42:41;;;;;;;5.60;2.58;;;18.80;99.90;;;;;;5071133;28;19995;-37
2022/08/22 06:45:18;;;;;;;5.53;3.00;;;18.90;99.90;;;;;;5069517;28;20044;-38
2022/08/22 06:48:14;;;;;;;8.32;3.08;;;18.90;99.90;;;;;;5061151;28;20032;-33
2022/08/22 06:50:43;;;;;;;6.43;2.20;;;18.90;99.90;;;;;;5066710;28;20031;-33
2022/08/22 06:53:26;;;;;;;9.30;2.75;;;18.90;99.90;;;;;;5061929;28;20468;-33
2022/08/22 06:55:55;;;;;;;8.10;3.08;;;18.90;99.90;;;;;;5052813;28;20041;-35
2022/08/22 06:58:28;;;;;;;7.10;2.63;;;18.80;99.90;;;;;;5069036;28;20016;-30
2022/08/22 07:01:07;;;;;;;8.15;2.75;;;18.80;99.90;;;;;;5061539;28;20707;-31
2022/08/22 07:03:38;;;;;;;8.32;2.55;;;18.80;99.90;;;;;;5065883;28;20021;-38
2022/08/22 07:06:03;;;;;;;9.20;3.22;;;18.90;99.90;;;;;;5057368;28;20472;-30
2022/08/22 07:08:31;;;;;;;5.35;2.42;;;19.00;99.90;;;;;;5061331;28;20110;-31
2022/08/22 07:11:15;;;;;;;2.97;2.13;;;19.10;99.90;;;;;;5057243;28;20409;-31
2022/08/22 07:14:01;;;;;;;9.25;2.90;;;19.30;99.90;;;;;;5068992;28;20017;-31
2022/08/22 07:16:49;;;;;;;6.53;2.80;;;19.40;99.90;;;;;;5062552;28;20102;-36
2022/08/22 07:19:27;;;;;;;13.35;2.72;;;19.50;99.90;;;;;;5066455;28;20117;-32
2022/08/22 07:21:54;;;;;;;10.20;2.85;;;19.70;99.90;;;;;;5065292;28;20539;-30
2022/08/22 07:24:24;;;;;;;8.40;3.15;;;19.80;99.90;;;;;;5064054;28;20367;-30
2022/08/22 07:27:40;;;;;;;9.23;2.60;;;19.80;99.90;;;;;;5061759;28;20074;-33
2022/08/22 07:30:10;;;;;;;12.63;3.05;;;19.80;99.90;;;;;;5045798;28;20044;-48
2022/08/22 07:32:52;;;;;;;5.75;2.47;;;19.80;99.90;;;;;;5072818;28;20118;-37
2022/08/22 07:35:26;;;;;;;8.50;2.28;;;19.80;99.90;;;;;;5074534;28;20024;-39
2022/08/22 07:38:13;;;;;;;6.40;3.67;;;19.90;99.90;;;;;;5058071;28;20039;-39
2022/08/22 07:41:28;;;;;;;7.50;2.42;;;20.10;99.90;;;;;;5055518;28;20492;-38
2022/08/22 07:44:15;;;;;;;6.07;2.97;;;20.40;99.90;;;;;;5054035;28;20480;-37
2022/08/22 07:46:55;;;;;;;10.10;3.10;;;20.70;99.90;;;;;;5066209;28;20039;-31
2022/08/22 07:49:24;;;;;;;9.73;3.15;;;20.90;99.90;;;;;;5056138;28;20573;-40
2022/08/22 07:52:06;;;;;;;6.45;2.78;;;21.10;99.90;;;;;;5052328;28;20113;-37
2022/08/22 07:54:34;;;;;;;17.88;3.45;;;21.20;99.90;;;;;;5070711;28;20049;-36
2022/08/22 07:57:05;;;;;;;8.32;2.50;;;21.30;99.90;;;;;;5055898;28;20032;-37
2022/08/22 07:59:34;;;;;;;12.18;3.40;;;21.50;99.90;;;;;;5062964;28;20112;-38
2022/08/22 08:02:06;;;;;;;7.68;3.10;;;21.60;99.90;;;;;;5069673;28;20384;-39
2022/08/22 08:04:34;;;;;;;7.57;2.75;;;21.80;99.90;;;;;;5061325;28;20468;-37
2022/08/22 08:07:02;;;;;;;9.43;2.50;;;22.00;99.90;;;;;;5065429;28;20422;-38
2022/08/22 08:09:31;;;;;;;2.30;1.92;;;22.00;99.90;;;;;;5064551;28;20083;-38
2022/08/22 08:11:59;;;;;;;13.32;3.13;;;22.20;99.90;;;;;;5068100;28;20033;-39
2022/08/22 08:14:26;;;;;;;10.52;3.03;;;22.30;99.90;;;;;;5060103;28;20483;-35
2022/08/22 08:17:02;;;;;;;7.90;1.88;;;22.40;99.90;;;;;;5064295;28;20025;-53
2022/08/22 08:19:32;;;;;;;7.90;2.25;;;22.40;99.90;;;;;;5054706;28;20463;-41
2022/08/22 08:21:58;;;;;;;9.00;2.45;;;22.40;99.90;;;;;;5061321;28;20024;-42
2022/08/22 08:24:29;;;;;;;6.90;2.67;;;22.50;99.90;;;;;;5060159;28;20488;-40
2022/08/22 08:30:01;;;;;;;7.30;2.42;;;22.50;99.90;;;;;;5060041;28;20090;-37
2022/08/22 08:32:30;;;;;;;8.77;2.50;;;22.60;99.90;;;;;;5067021;28;20067;-36
2022/08/22 08:35:06;;;;;;;7.82;2.40;;;22.90;99.90;;;;;;5063306;28;20033;-56
2022/08/22 08:37:44;;;;;;;10.57;2.33;;;23.10;99.90;;;;;;5052142;28;20354;-52
2022/08/22 08:40:29;;;;;;;10.20;3.17;;;23.20;99.90;;;;;;5052657;28;20099;-41
2022/08/22 08:45:58;;;;;;;6.05;2.20;;;23.60;99.90;;;;;;5057035;28;20067;-37
2022/08/22 08:48:47;;;;;;;5.82;2.00;;;23.90;99.90;;;;;;5077180;28;20464;-30
2022/08/22 08:51:37;;;;;;;4.30;1.80;;;24.10;99.90;;;;;;5049578;28;21265;-35
2022/08/22 08:54:14;;;;;;;6.68;2.33;;;24.20;99.90;;;;;;5064959;28;20029;-38
2022/08/22 08:57:01;;;;;;;12.77;2.58;;;24.30;99.90;;;;;;5064895;28;20047;-48
2022/08/22 08:59:27;;;;;;;;;;;24.40;99.90;;;;;;5056370;28;20033;-38
2022/08/22 09:02:11;;;;;;;5.28;1.70;;;24.60;99.90;;;;;;5064361;28;19913;-39
2022/08/22 09:04:53;;;;;;;6.03;1.60;;;24.80;99.90;;;;;;5053871;28;20495;-36
2022/08/22 09:07:41;;;;;;;5.10;1.23;;;25.00;99.90;;;;;;5060086;28;20021;-37
2022/08/22 09:10:12;;;;;;;6.28;1.55;;;24.80;99.90;;;;;;5068366;28;20037;-35
2022/08/22 09:13:08;;;;;;;6.85;2.08;;;25.00;99.90;;;;;;5068955;28;20029;-37
2022/08/22 09:15:49;;;;;;;7.73;2.50;;;25.20;99.90;;;;;;5068945;28;20500;-37
2022/08/22 09:18:33;;;;;;;4.47;1.63;;;25.30;99.90;;;;;;5068972;28;20758;-36
2022/08/22 09:21:47;;;;;;;2.00;1.52;;;25.80;99.90;;;;;;5072998;28;20117;-37
2022/08/22 09:24:28;;;;;;;13.52;1.67;;;26.00;99.90;;;;;;5054431;28;20505;-52
2022/08/22 09:26:57;;;;;;;6.80;1.92;;;26.20;99.90;;;;;;5067545;28;20029;-39
2022/08/22 09:29:51;;;;;;;4.97;1.33;;;26.50;99.90;;;;;;5071890;28;20028;-53
2022/08/22 09:32:27;;;;;;;7.68;1.85;;;26.70;99.90;;;;;;5068529;28;20031;-37
2022/08/22 09:35:15;;;;;;;3.33;1.65;;;26.80;99.50;;;;;;5071494;28;20511;-38
2022/08/22 09:37:47;;;;;;;5.65;2.05;;;27.00;99.60;;;;;;5064697;28;20684;-37
2022/08/22 09:40:39;;;;;;;7.88;3.10;;;27.30;98.90;;;;;;5072783;28;20027;-39
2022/08/22 09:43:19;;;;;;;6.55;1.95;;;27.30;99.00;;;;;;5067208;28;20021;-38
2022/08/22 09:46:03;;;;;;;4.43;2.38;;;27.50;98.40;;;;;;5059941;28;20155;-40
2022/08/22 09:48:38;;;;;;;6.55;1.90;;;27.80;98.20;;;;;;5063637;28;20029;-39
2022/08/22 09:51:41;;;;;;;4.72;1.75;;;27.90;98.10;;;;;;5067944;28;20071;-39
2022/08/22 09:54:23;;;;;;;9.93;2.00;;;28.50;97.40;;;;;;5064257;28;20538;-35
2022/08/22 09:56:56;;;;;;;3.53;1.50;;;28.50;97.50;;;;;;5073992;28;20052;-38
2022/08/22 09:59:37;;;;;;;2.10;1.23;;;28.70;96.70;;;;;;5075354;28;20032;-37
2022/08/22 10:02:09;;;;;;;6.97;2.33;;;28.60;95.50;;;;;;5071177;28;20023;-40
2022/08/22 10:04:53;;;;;;;3.35;1.40;;;28.10;96.30;;;;;;5054913;28;20025;-38
2022/08/22 10:07:36;;;;;;;3.00;1.67;;;27.60;96.80;;;;;;5068231;28;20052;-37
2022/08/22 10:10:05;;;;;;;3.58;1.98;;;27.70;96.90;;;;;;5069539;28;20021;-38
2022/08/22 10:12:39;;;;;;;4.53;1.48;;;27.60;97.10;;;;;;5071215;28;20086;-37
2022/08/22 10:15:45;;;;;;;7.72;1.52;;;27.40;97.40;;;;;;5069304;28;20021;-41
2022/08/22 10:18:19;;;;;;;4.55;2.22;;;27.40;96.90;;;;;;5065085;28;20464;-37
2022/08/22 10:21:03;;;;;;;3.92;1.38;;;27.40;97.10;;;;;;5064072;28;20472;-42
2022/08/22 10:23:38;;;;;;;5.57;2.05;;;27.30;97.30;;;;;;5063833;28;20362;-38
2022/08/22 10:26:25;;;;;;;14.07;1.95;;;27.80;96.00;;;;;;5060421;28;20029;-36
2022/08/22 10:29:04;;;;;;;4.28;1.85;;;28.30;96.00;;;;;;5063850;28;20124;-57
2022/08/22 10:31:37;;;;;;;3.90;1.50;;;28.30;96.60;;;;;;5073629;28;20119;-41
2022/08/22 10:34:15;;;;;;;7.05;1.52;;;28.50;96.50;;;;;;5089328;28;20055;-47
2022/08/22 10:36:53;;;;;;;8.63;2.00;;;28.80;96.50;;;;;;5061607;28;20067;-39
2022/08/22 10:39:24;;;;;;;6.32;1.67;;;29.00;95.50;;;;;;5069375;28;20488;-39
2022/08/22 10:42:22;;;;;;;4.70;2.17;;;29.20;95.20;;;;;;5056752;28;20017;-38
2022/08/22 10:44:50;;;;;;;2.70;1.70;;;29.20;95.00;;;;;;5064566;28;20040;-37
2022/08/22 10:47:35;;;;;;;4.47;1.45;;;29.10;95.40;;;;;;5065343;28;20032;-38
2022/08/22 10:50:29;;;;;;;8.48;1.88;;;29.00;95.40;;;;;;5070023;28;20017;-37
2022/08/22 10:55:48;;;;;;;5.63;2.13;;;27.80;96.10;;;;;;5086363;28;20131;-39
2022/08/22 10:58:25;;;;;;;8.30;2.08;;;27.90;95.70;;;;;;5083995;28;20318;-38
2022/08/22 11:01:01;;;;;;;5.50;2.30;;;27.80;96.40;;;;;;5079771;28;20104;-39
2022/08/22 11:03:41;;;;;;;3.85;2.30;;;27.80;96.10;;;;;;5070240;28;20033;-38
2022/08/22 11:06:18;;;;;;;6.15;2.10;;;27.90;96.20;;;;;;5074833;28;20522;-38
2022/08/22 11:09:16;;;;;;;5.03;1.85;;;28.00;96.10;;;;;;5087022;28;20035;-38
2022/08/22 11:11:54;;;;;;;9.30;2.10;;;28.10;96.50;;;;;;5056548;28;20511;-38
2022/08/22 11:14:41;;;;;;;6.57;1.90;;;28.10;96.40;;;;;;5080175;28;20111;-37
2022/08/22 11:17:24;;;;;;;6.88;1.88;;;28.40;96.10;;;;;;5081678;28;20032;-34
2022/08/22 11:20:18;;;;;;;9.27;2.17;;;28.30;95.80;;;;;;5074758;28;20020;-39
2022/08/22 11:22:54;;;;;;;7.90;2.67;;;27.80;96.50;;;;;;5069779;28;20100;-37
2022/08/22 11:25:32;;;;;;;9.73;2.00;;;27.60;96.60;;;;;;5085570;28;20019;-38
2022/08/22 11:28:16;;;;;;;7.90;1.88;;;27.00;96.80;;;;;;5065454;28;20551;-38
2022/08/22 11:31:28;;;;;;;7.90;2.22;;;26.60;97.40;;;;;;5060252;28;20590;-38
2022/08/22 11:34:13;;;;;;;6.50;2.00;;;26.50;97.80;;;;;;5029535;28;20033;-39
2022/08/22 11:37:09;;;;;;;7.43;2.47;;;26.60;97.50;;;;;;5062782;28;20423;-41
2022/08/22 11:40:03;;;;;;;7.72;1.90;;;26.70;96.80;;;;;;5062508;28;20025;-32
2022/08/22 11:43:08;;;;;;;9.25;1.60;;;26.70;97.40;;;;;;5062352;28;20482;-39
2022/08/22 11:45:43;;;;;;;7.65;1.88;;;26.80;95.90;;;;;;5067406;28;20097;-39
2022/08/22 11:48:27;;;;;;;4.28;2.15;;;26.90;95.50;;;;;;5068912;28;20016;-38
2022/08/22 11:51:15;;;;;;;7.97;1.33;;;26.80;96.00;;;;;;5062482;28;20021;-41
2022/08/22 11:54:06;;;;;;;5.80;1.50;;;26.90;95.90;;;;;;5064380;28;20025;-46
2022/08/22 11:56:40;;;;;;;5.00;2.17;;;27.20;95.10;;;;;;5051034;28;20575;-34
2022/08/22 11:59:52;;;;;;;3.30;1.40;;;27.30;95.00;;;;;;5061823;28;20373;-34
2022/08/22 12:02:32;;;;;;;8.10;2.05;;;27.40;94.50;;;;;;5049981;28;20484;-30
2022/08/22 12:05:09;;;;;;;3.70;1.50;;;27.50;94.40;;;;;;5052642;28;20033;-30
2022/08/22 12:07:41;;;;;;;7.47;2.05;;;27.60;94.40;;;;;;5051325;28;20017;-31
2022/08/22 12:10:20;;;;;;;3.38;1.30;;;27.60;93.90;;;;;;5051091;28;20025;-31
2022/08/22 12:13:11;;;;;;;3.50;1.30;;;27.60;93.70;;;;;;5054628;28;20024;-31
2022/08/22 12:15:47;;;;;;;4.30;1.45;;;27.80;93.30;;;;;;5061600;28;20025;-30
2022/08/22 12:18:26;;;;;;;3.92;1.30;;;27.80;93.70;;;;;;5051561;28;20025;-33
2022/08/22 12:20:58;;;;;;;6.20;2.00;;;27.90;93.70;;;;;;5050997;28;20366;-36
2022/08/22 12:23:53;;;;;;;4.53;1.63;;;28.20;93.10;;;;;;5053747;28;20025;-30
2022/08/22 12:26:54;;;;;;;4.35;1.73;;;28.20;93.30;;;;;;5050987;28;20104;-48
2022/08/22 12:29:43;;;;;;;3.70;1.88;;;28.50;93.60;;;;;;5063719;28;20461;-38
2022/08/22 12:32:18;;;;;;;3.63;1.48;;;28.80;93.40;;;;;;5050899;28;20481;-38
2022/08/22 12:35:17;;;;;;;5.30;1.50;;;28.90;93.10;;;;;;5051537;28;20493;-37
2022/08/22 12:38:20;;;;;;;3.90;1.30;;;28.70;92.60;;;;;;5056953;28;20494;-39
2022/08/22 12:41:15;;;;;;;3.58;1.30;;;28.40;93.30;;;;;;5050337;28;20048;-38
2022/08/22 12:44:06;;;;;;;4.07;1.67;;;28.20;93.40;;;;;;5053395;28;20033;-38
2022/08/22 12:46:51;;;;;;;4.70;1.63;;;28.40;93.60;;;;;;5051082;28;20086;-36
2022/08/22 12:49:42;;;;;;;5.05;1.70;;;28.60;93.00;;;;;;5051226;28;20481;-39
2022/08/22 12:52:26;;;;;;;4.72;1.38;;;28.70;92.40;;;;;;5051402;28;20044;-38
2022/08/22 12:54:52;;;;;;;4.82;1.17;;;28.60;92.10;;;;;;5070761;28;20049;-38
2022/08/22 12:57:44;;;;;;;4.80;1.30;;;28.50;92.60;;;;;;5070392;28;20036;-38
2022/08/22 13:00:24;;;;;;;10.55;2.45;;;28.30;92.50;;;;;;5054593;28;20025;-38
2022/08/22 13:02:52;;;;;;;7.07;1.42;;;28.10;93.30;;;;;;5054656;28;20035;-38
2022/08/22 13:05:23;;;;;;;4.40;1.35;;;27.90;93.00;;;;;;5066375;28;20056;-38
2022/08/22 13:08:13;;;;;;;7.47;1.77;;;28.00;93.40;;;;;;5054548;28;20060;-32
2022/08/22 13:10:45;;;;;;;5.32;1.70;;;28.20;93.00;;;;;;5054356;28;20037;-29
2022/08/22 13:13:23;;;;;;;5.10;1.67;;;28.30;93.60;;;;;;5057737;28;20028;-31
2022/08/22 13:16:17;;;;;;;6.45;1.73;;;28.40;92.90;;;;;;5054201;28;20086;-31
2022/08/22 13:18:55;;;;;;;3.35;1.35;;;28.30;92.60;;;;;;5054170;28;20512;-35
2022/08/22 13:21:28;;;;;;;4.20;1.45;;;28.60;92.60;;;;;;5053923;28;20033;-32
2022/08/22 13:23:57;;;;;;;7.35;1.58;;;28.70;92.70;;;;;;5054293;28;20029;-33
2022/08/22 13:26:26;;;;;;;6.32;2.13;;;28.60;92.40;;;;;;5054315;28;20025;-34
2022/08/22 13:28:58;;;;;;;6.30;1.77;;;28.60;92.80;;;;;;5062277;28;20025;-30
2022/08/22 13:31:36;;;;;;;8.02;2.95;;;28.70;92.80;;;;;;5066563;28;20039;-32
2022/08/22 13:34:08;;;;;;;4.45;1.92;;;28.70;93.10;;;;;;5054016;28;20463;-31
2022/08/22 13:36:46;;;;;;;8.55;1.95;;;28.90;92.60;;;;;;5066218;28;20129;-33
2022/08/22 13:39:12;;;;;;;1.73;1.58;;;28.90;93.30;;;;;;5054130;28;20036;-32
2022/08/22 13:41:53;;;;;;;3.63;1.58;;;28.80;92.90;;;;;;5053766;28;20024;-35
2022/08/22 13:44:42;;;;;;;3.25;1.58;;;28.50;92.80;;;;;;5060350;28;20031;-31
2022/08/22 13:47:13;;;;;;;7.07;1.70;;;28.10;93.30;;;;;;5053654;28;20059;-30
2022/08/22 13:49:47;;;;;;;3.22;1.48;;;27.90;93.60;;;;;;5066020;28;20025;-31
2022/08/22 13:52:35;;;;;;;3.53;1.73;;;28.10;93.30;;;;;;5053927;28;20384;-38
2022/08/22 13:55:05;;;;;;;5.88;2.00;;;28.40;93.30;;;;;;5059551;28;20116;-39
2022/08/22 13:57:43;;;;;;;8.55;1.85;;;28.70;92.70;;;;;;5063579;28;20043;-44
2022/08/22 14:00:10;;;;;;;4.25;1.65;;;29.10;92.40;;;;;;5054138;28;20397;-37
2022/08/22 14:03:19;;;;;;;1.98;1.35;;;29.30;92.20;;;;;;5060211;28;20037;-36
2022/08/22 14:05:57;;;;;;;7.03;1.85;;;29.30;92.40;;;;;;5053167;28;20634;-38
2022/08/22 14:08:27;;;;;;;3.97;1.58;;;29.50;92.20;;;;;;5067682;28;20032;-39
2022/08/22 14:11:05;;;;;;;5.53;1.85;;;29.50;92.40;;;;;;5055091;28;20476;-39